Time;durP1;ratioP1;P1;durP2;ratioP2;P2;SDS_P1;SDS_P2;PMS_P1;PMS_P2;Temp;Humidity;BMP_temperature;BMP_pressure;BME280_temperature;BME280_humidity;BME280_pressure;Samples;Min_cycle;Max_cycle;Signal;HPM_P1;HPM_P2
2021/12/27 00:00:19;;;;;;;17.20;10.52;;;-0.70;99.90;;;;;;4819807;29;20046;-79
2021/12/27 00:02:45;;;;;;;17.52;10.60;;;-0.70;99.90;;;;;;4837328;29;20157;-79
2021/12/27 00:05:11;;;;;;;18.92;10.77;;;-0.70;99.90;;;;;;4838636;29;20038;-82
2021/12/27 00:07:37;;;;;;;18.10;10.65;;;-0.70;99.90;;;;;;4839847;29;20041;-82
2021/12/27 00:10:05;;;;;;;18.05;11.00;;;-0.70;99.90;;;;;;4828721;29;20144;-81
2021/12/27 00:12:30;;;;;;;19.52;11.25;;;-0.70;99.90;;;;;;4843355;29;20049;-81
2021/12/27 00:14:56;;;;;;;20.15;11.07;;;-0.70;99.90;;;;;;4845212;29;20535;-81
2021/12/27 00:17:22;;;;;;;16.50;10.43;;;-0.70;99.90;;;;;;4824898;29;20126;-82
2021/12/27 00:19:47;;;;;;;16.60;10.05;;;-0.70;99.90;;;;;;4822325;29;20034;-81
2021/12/27 00:22:14;;;;;;;16.77;10.07;;;-0.70;99.90;;;;;;4844945;29;20448;-81
2021/12/27 00:24:39;;;;;;;17.92;11.15;;;-0.70;99.90;;;;;;4827569;29;20045;-81
2021/12/27 00:27:06;;;;;;;18.88;11.25;;;-0.70;99.90;;;;;;4843888;29;20185;-81
2021/12/27 00:29:32;;;;;;;18.30;10.90;;;-0.60;99.90;;;;;;4826018;29;20075;-81
2021/12/27 00:31:58;;;;;;;17.90;10.98;;;-0.60;99.90;;;;;;4829363;29;20053;-81
2021/12/27 00:34:24;;;;;;;15.48;9.82;;;-0.70;99.90;;;;;;4845956;29;20510;-81
2021/12/27 00:36:49;;;;;;;17.63;11.05;;;-0.70;99.90;;;;;;4839602;29;20095;-81
2021/12/27 00:39:15;;;;;;;20.10;11.02;;;-0.70;99.90;;;;;;4814886;29;20057;-81
2021/12/27 00:41:41;;;;;;;18.30;11.45;;;-0.70;99.90;;;;;;4816558;29;20052;-81
2021/12/27 00:44:06;;;;;;;16.75;10.75;;;-0.70;99.90;;;;;;4820747;29;20500;-81
2021/12/27 00:46:32;;;;;;;17.53;10.77;;;-0.70;99.90;;;;;;4828336;29;20042;-81
2021/12/27 00:48:58;;;;;;;18.80;10.60;;;-0.70;99.90;;;;;;4819046;29;20298;-81
2021/12/27 00:51:23;;;;;;;19.42;11.30;;;-0.80;99.90;;;;;;4827566;29;20041;-81
2021/12/27 00:53:49;;;;;;;18.70;11.05;;;-0.80;99.90;;;;;;4825906;29;20033;-81
2021/12/27 00:56:15;;;;;;;16.77;11.23;;;-0.80;99.90;;;;;;4836280;29;20049;-82
2021/12/27 00:58:40;;;;;;;16.88;11.18;;;-0.80;99.90;;;;;;4819284;29;20034;-81
2021/12/27 01:01:06;;;;;;;18.20;11.63;;;-0.80;99.90;;;;;;4835288;29;20106;-81
2021/12/27 01:03:32;;;;;;;18.38;11.05;;;-0.80;99.90;;;;;;4828432;29;20085;-82
2021/12/27 01:05:58;;;;;;;18.60;11.57;;;-0.80;99.90;;;;;;4826010;29;20037;-81
2021/12/27 01:08:23;;;;;;;18.25;11.40;;;-0.90;99.90;;;;;;4838288;29;20499;-81
2021/12/27 01:11:12;;;;;;;18.27;11.45;;;-0.90;99.90;;;;;;4840769;29;20041;-81
2021/12/27 01:13:58;;;;;;;16.55;10.77;;;-0.90;99.90;;;;;;4832745;29;20496;-81
2021/12/27 01:16:24;;;;;;;19.08;11.20;;;-1.00;99.90;;;;;;4815843;29;20524;-81
2021/12/27 01:18:50;;;;;;;18.70;11.43;;;-1.00;99.90;;;;;;4858878;29;20054;-81
2021/12/27 01:21:19;;;;;;;16.83;10.85;;;-1.10;99.90;;;;;;4815008;29;20081;-81
2021/12/27 01:23:45;;;;;;;18.83;11.85;;;-1.10;99.90;;;;;;4840705;29;20072;-81
2021/12/27 01:26:11;;;;;;;20.50;12.00;;;-1.10;99.90;;;;;;4828162;29;20500;-81
2021/12/27 01:28:37;;;;;;;;;;;-1.10;99.90;;;;;;4841782;29;20037;-81
2021/12/27 01:31:03;;;;;;;16.77;10.48;;;-1.10;99.90;;;;;;4820446;29;20335;-81
2021/12/27 01:33:30;;;;;;;16.60;10.63;;;-1.10;99.90;;;;;;4840821;29;20148;-81
2021/12/27 01:35:56;;;;;;;18.77;11.07;;;-1.10;99.90;;;;;;4835680;29;20045;-81
2021/12/27 01:38:22;;;;;;;17.70;10.85;;;-1.10;99.90;;;;;;4825241;29;20116;-81
2021/12/27 01:40:50;;;;;;;17.25;11.38;;;-1.10;99.90;;;;;;4831332;29;20045;-81
2021/12/27 01:43:28;;;;;;;18.75;11.10;;;-1.10;99.90;;;;;;4822489;29;20445;-81
2021/12/27 01:46:09;;;;;;;17.48;11.02;;;-1.10;99.90;;;;;;4830509;29;20053;-81
2021/12/27 01:48:39;;;;;;;17.77;11.23;;;-1.10;99.90;;;;;;4834566;29;20037;-82
2021/12/27 01:51:07;;;;;;;18.27;11.05;;;-1.10;99.90;;;;;;4819833;29;20042;-81
2021/12/27 01:53:34;;;;;;;20.23;11.35;;;-1.10;99.90;;;;;;4833270;29;20093;-81
2021/12/27 01:56:01;;;;;;;17.95;11.40;;;-1.10;99.90;;;;;;4842151;29;20064;-81
2021/12/27 01:58:27;;;;;;;17.02;10.57;;;-1.10;99.90;;;;;;4812177;29;20393;-81
2021/12/27 02:00:56;;;;;;;18.33;11.05;;;-1.10;99.90;;;;;;4810381;29;20464;-81
2021/12/27 02:03:25;;;;;;;16.70;10.60;;;-1.10;99.90;;;;;;4833819;29;20042;-81
2021/12/27 02:05:51;;;;;;;17.85;11.07;;;-1.10;99.90;;;;;;4842438;29;20428;-81
2021/12/27 02:08:17;;;;;;;19.48;11.80;;;-1.10;99.90;;;;;;4819032;29;20065;-81
2021/12/27 02:10:43;;;;;;;18.98;12.23;;;-1.10;99.90;;;;;;4841579;29;20057;-81
2021/12/27 02:13:10;;;;;;;19.27;12.40;;;-1.00;99.90;;;;;;4839297;29;20061;-80
2021/12/27 02:15:36;;;;;;;20.50;12.27;;;-1.00;99.90;;;;;;4827216;29;20086;-80
2021/12/27 02:18:03;;;;;;;19.08;11.40;;;-1.10;99.90;;;;;;4836494;29;20057;-81
2021/12/27 02:20:32;;;;;;;19.40;12.00;;;-1.10;99.90;;;;;;4817694;29;20041;-81
2021/12/27 02:23:01;;;;;;;19.35;12.23;;;-1.00;99.90;;;;;;4838194;29;20041;-80
2021/12/27 02:25:29;;;;;;;19.75;12.40;;;-1.00;99.90;;;;;;4836814;29;20138;-80
2021/12/27 02:27:55;;;;;;;17.85;11.77;;;-1.00;99.90;;;;;;4829895;29;20344;-81
2021/12/27 02:30:22;;;;;;;21.75;12.55;;;-1.00;99.90;;;;;;4818331;29;20090;-80
2021/12/27 02:32:51;;;;;;;19.75;12.32;;;-1.00;99.90;;;;;;4826019;29;20042;-80
2021/12/27 02:35:29;;;;;;;19.38;12.30;;;-1.00;99.90;;;;;;4816545;29;20507;-81
2021/12/27 02:37:56;;;;;;;19.35;12.23;;;-1.00;99.90;;;;;;4832393;29;20365;-81
2021/12/27 02:40:24;;;;;;;19.83;11.85;;;-0.90;99.90;;;;;;4831562;29;20049;-81
2021/12/27 02:43:12;;;;;;;19.27;11.70;;;-1.00;99.90;;;;;;4856885;29;20436;-80
2021/12/27 02:45:39;;;;;;;18.90;12.45;;;-0.90;99.90;;;;;;4842099;29;20042;-80
2021/12/27 02:48:06;;;;;;;18.58;11.23;;;-0.90;99.90;;;;;;4832440;29;20045;-80
2021/12/27 02:50:33;;;;;;;19.67;12.88;;;-0.90;99.90;;;;;;4798860;29;20069;-81
2021/12/27 02:52:59;;;;;;;20.02;12.95;;;-0.90;99.90;;;;;;4832498;29;20050;-80
2021/12/27 02:55:25;;;;;;;18.15;11.50;;;-0.90;99.90;;;;;;4833123;29;20132;-80
2021/12/27 02:57:51;;;;;;;18.98;12.35;;;-0.90;99.90;;;;;;4858875;29;20132;-80
2021/12/27 03:00:30;;;;;;;21.40;13.05;;;-0.80;99.90;;;;;;4807197;29;20053;-80
2021/12/27 03:02:57;;;;;;;20.63;13.55;;;-0.80;99.90;;;;;;4815822;29;20129;-80
2021/12/27 03:05:28;;;;;;;22.50;12.85;;;-0.80;99.90;;;;;;4837726;29;20041;-80
2021/12/27 03:07:55;;;;;;;19.75;12.95;;;-0.80;99.90;;;;;;4823980;29;20456;-80
2021/12/27 03:10:30;;;;;;;18.58;12.30;;;-0.80;99.90;;;;;;4812977;29;20050;-80
2021/12/27 03:13:00;;;;;;;19.98;12.27;;;-0.80;99.90;;;;;;4824918;29;20046;-81
2021/12/27 03:15:25;;;;;;;21.85;13.27;;;-0.80;99.90;;;;;;4831264;29;20148;-81
2021/12/27 03:17:54;;;;;;;21.27;14.05;;;-0.80;99.90;;;;;;4836318;29;20090;-80
2021/12/27 03:20:23;;;;;;;21.30;12.90;;;-0.70;99.90;;;;;;4832835;29;20534;-81
2021/12/27 03:22:49;;;;;;;19.55;12.50;;;-0.70;99.90;;;;;;4825732;29;20087;-80
2021/12/27 03:25:16;;;;;;;;;;;-0.70;99.90;;;;;;4817240;29;20378;-80
2021/12/27 03:27:43;;;;;;;20.77;12.75;;;-0.70;99.90;;;;;;4814900;29;19927;-80
2021/12/27 03:30:14;;;;;;;19.25;12.57;;;-0.70;99.90;;;;;;4829909;29;20050;-80
2021/12/27 03:32:40;;;;;;;17.45;12.27;;;-0.70;99.90;;;;;;4839275;29;20045;-80
2021/12/27 03:35:10;;;;;;;22.95;13.65;;;-0.70;99.90;;;;;;4826127;29;20173;-80
2021/12/27 03:37:38;;;;;;;22.35;13.35;;;-0.60;99.90;;;;;;4841079;29;20547;-80
2021/12/27 03:40:06;;;;;;;22.08;14.02;;;-0.60;99.90;;;;;;4827556;29;20054;-80
2021/12/27 03:42:32;;;;;;;19.30;12.65;;;-0.60;99.90;;;;;;4840747;29;20045;-80
2021/12/27 03:44:58;;;;;;;24.17;13.60;;;-0.60;99.90;;;;;;4837504;29;20052;-81
2021/12/27 03:47:24;;;;;;;19.48;12.15;;;-0.60;99.90;;;;;;4824581;29;20145;-81
2021/12/27 03:49:49;;;;;;;20.48;13.27;;;-0.60;99.90;;;;;;4823773;29;20530;-80
2021/12/27 03:52:15;;;;;;;21.73;13.27;;;-0.60;99.90;;;;;;4854659;29;20085;-80
2021/12/27 03:54:41;;;;;;;22.10;13.48;;;-0.60;99.90;;;;;;4831262;29;20298;-80
2021/12/27 03:57:07;;;;;;;20.10;12.75;;;-0.60;99.90;;;;;;4840566;29;20423;-80
2021/12/27 03:59:49;;;;;;;22.13;13.10;;;-0.60;99.90;;;;;;4818475;29;20499;-80
2021/12/27 04:02:15;;;;;;;22.05;13.43;;;-0.60;99.90;;;;;;4837775;29;20053;-80
2021/12/27 04:04:41;;;;;;;21.52;13.57;;;-0.60;99.90;;;;;;4833007;29;20046;-80
2021/12/27 04:07:08;;;;;;;24.77;14.63;;;-0.50;99.90;;;;;;4855909;29;20074;-81
2021/12/27 04:09:35;;;;;;;20.13;12.27;;;-0.50;99.90;;;;;;4823442;29;20103;-80
2021/12/27 04:12:00;;;;;;;20.23;13.48;;;-0.50;99.90;;;;;;4830790;29;20070;-80
2021/12/27 04:14:26;;;;;;;20.40;12.85;;;-0.50;99.90;;;;;;4826338;29;20145;-80
2021/12/27 04:16:53;;;;;;;21.98;13.88;;;-0.50;99.90;;;;;;4824125;29;20093;-80
2021/12/27 04:19:19;;;;;;;20.10;12.93;;;-0.50;99.90;;;;;;4836497;29;20040;-80
2021/12/27 04:21:45;;;;;;;21.17;13.32;;;-0.40;99.90;;;;;;4835915;29;20046;-80
2021/12/27 04:24:11;;;;;;;22.58;14.07;;;-0.40;99.90;;;;;;4830984;29;20085;-80
2021/12/27 04:26:37;;;;;;;21.42;13.70;;;-0.40;99.90;;;;;;4808361;29;20095;-80
2021/12/27 04:29:04;;;;;;;21.73;13.13;;;-0.40;99.90;;;;;;4837907;29;20034;-80
2021/12/27 04:31:29;;;;;;;21.50;14.07;;;-0.40;99.90;;;;;;4801111;29;20129;-80
2021/12/27 04:33:55;;;;;;;19.38;12.98;;;-0.40;99.90;;;;;;4815610;29;20487;-80
2021/12/27 04:36:21;;;;;;;19.83;12.40;;;-0.40;99.90;;;;;;4819990;29;20076;-80
2021/12/27 04:38:47;;;;;;;19.85;12.77;;;-0.40;99.90;;;;;;4831630;29;20155;-80
2021/12/27 04:41:16;;;;;;;21.92;14.20;;;-0.40;99.90;;;;;;4823756;29;20118;-80
2021/12/27 04:43:41;;;;;;;20.65;13.45;;;-0.40;99.90;;;;;;4837830;29;20105;-81
2021/12/27 04:46:07;;;;;;;24.48;14.05;;;-0.30;99.90;;;;;;4808680;29;20045;-80
2021/12/27 04:48:33;;;;;;;23.88;15.32;;;-0.40;99.90;;;;;;4836884;29;20349;-80
2021/12/27 04:50:58;;;;;;;20.02;13.38;;;-0.40;99.90;;;;;;4820808;29;20069;-80
2021/12/27 04:53:24;;;;;;;23.10;14.60;;;-0.30;99.90;;;;;;4824914;29;20065;-81
2021/12/27 04:55:51;;;;;;;20.83;12.50;;;-0.30;99.90;;;;;;4826768;29;20054;-80
2021/12/27 04:58:20;;;;;;;19.88;12.45;;;-0.30;99.90;;;;;;4815540;29;20392;-80
2021/12/27 05:00:46;;;;;;;23.13;14.45;;;-0.30;99.90;;;;;;4835429;29;20049;-80
2021/12/27 05:03:12;;;;;;;15.15;10.07;;;-0.30;99.90;;;;;;4832569;29;20133;-80
2021/12/27 05:05:43;;;;;;;22.83;13.93;;;-0.30;99.90;;;;;;4832784;29;20151;-80
2021/12/27 05:08:10;;;;;;;21.92;13.95;;;-0.20;99.90;;;;;;4829339;29;20057;-80
2021/12/27 05:10:36;;;;;;;21.52;13.02;;;-0.20;99.90;;;;;;4837127;29;20053;-80
2021/12/27 05:13:02;;;;;;;21.80;13.98;;;-0.20;99.90;;;;;;4835438;29;20046;-80
2021/12/27 05:15:28;;;;;;;23.10;14.48;;;-0.20;99.90;;;;;;4839365;29;20058;-80
2021/12/27 05:17:54;;;;;;;22.98;14.93;;;-0.20;99.90;;;;;;4826771;29;20045;-80
2021/12/27 05:20:20;;;;;;;23.85;13.85;;;-0.10;99.90;;;;;;4840500;29;20048;-80
2021/12/27 05:22:46;;;;;;;18.50;11.32;;;-0.20;99.90;;;;;;4837879;29;20057;-80
2021/12/27 05:25:14;;;;;;;20.67;13.80;;;-0.10;99.90;;;;;;4824090;29;20048;-80
2021/12/27 05:27:40;;;;;;;21.50;13.68;;;-0.10;99.90;;;;;;4842682;29;20048;-80
2021/12/27 05:30:07;;;;;;;24.40;14.65;;;-0.10;99.90;;;;;;4838309;29;20539;-80
2021/12/27 05:32:34;;;;;;;;;;;-0.10;99.90;;;;;;4836907;29;20125;-80
2021/12/27 05:34:59;;;;;;;21.02;13.45;;;-0.10;99.90;;;;;;4842201;29;19931;-80
2021/12/27 05:37:25;;;;;;;21.42;14.07;;;-0.10;99.90;;;;;;4821294;29;20049;-81
2021/12/27 05:39:51;;;;;;;25.10;14.82;;;0.00;99.90;;;;;;4826730;29;20050;-80
2021/12/27 05:42:17;;;;;;;23.70;14.30;;;-0.10;99.90;;;;;;4829076;29;20045;-80
2021/12/27 05:44:42;;;;;;;21.80;13.38;;;0.00;99.90;;;;;;4838593;29;20166;-79
2021/12/27 05:47:08;;;;;;;20.42;13.18;;;0.00;99.90;;;;;;4840557;29;20120;-79
2021/12/27 05:49:34;;;;;;;21.20;14.02;;;0.00;99.90;;;;;;4825629;29;20049;-80
2021/12/27 05:51:59;;;;;;;24.50;15.37;;;-0.10;99.90;;;;;;4837743;29;20571;-80
2021/12/27 05:54:25;;;;;;;23.37;15.43;;;-0.10;99.90;;;;;;4831114;29;20398;-79
2021/12/27 05:56:51;;;;;;;23.30;14.27;;;-0.10;99.90;;;;;;4824985;29;20294;-79
2021/12/27 05:59:17;;;;;;;19.85;12.25;;;-0.20;99.90;;;;;;4841431;29;20297;-80
2021/12/27 06:01:44;;;;;;;;;;;-0.20;99.90;;;;;;4836849;29;20052;-80
2021/12/27 06:04:09;;;;;;;24.10;14.20;;;-0.20;99.90;;;;;;4823846;29;19928;-80
2021/12/27 06:06:36;;;;;;;25.20;16.63;;;-0.20;99.90;;;;;;4841167;29;20531;-80
2021/12/27 06:09:04;;;;;;;24.98;15.60;;;-0.30;99.90;;;;;;4817378;29;20463;-80
2021/12/27 06:11:29;;;;;;;23.63;14.40;;;-0.30;99.90;;;;;;4840267;29;20045;-80
2021/12/27 06:13:55;;;;;;;29.63;16.80;;;-0.30;99.90;;;;;;4828305;29;20572;-80
2021/12/27 06:16:21;;;;;;;27.50;16.23;;;-0.30;99.90;;;;;;4841802;29;20452;-80
2021/12/27 06:18:48;;;;;;;25.48;15.85;;;-0.30;99.90;;;;;;4822776;29;20132;-80
2021/12/27 06:21:13;;;;;;;27.70;16.13;;;-0.30;99.90;;;;;;4838521;29;20038;-79
2021/12/27 06:23:39;;;;;;;28.20;16.50;;;-0.30;99.90;;;;;;4833122;29;20106;-77
2021/12/27 06:26:05;;;;;;;25.73;15.10;;;-0.30;99.90;;;;;;4825105;29;20050;-77
2021/12/27 06:28:32;;;;;;;24.70;15.73;;;-0.30;99.90;;;;;;4831973;29;20041;-76
2021/12/27 06:30:59;;;;;;;23.15;15.10;;;-0.30;99.90;;;;;;4819710;29;20061;-76
2021/12/27 06:33:25;;;;;;;25.48;16.48;;;-0.30;99.90;;;;;;4833147;29;20045;-75
2021/12/27 06:35:50;;;;;;;24.77;15.15;;;-0.30;99.90;;;;;;4831794;29;20060;-76
2021/12/27 06:38:16;;;;;;;26.35;16.52;;;-0.20;99.90;;;;;;4824110;29;20042;-78
2021/12/27 06:40:42;;;;;;;26.48;16.83;;;-0.20;99.90;;;;;;4821943;29;20191;-78
2021/12/27 06:43:08;;;;;;;26.58;16.88;;;-0.20;99.90;;;;;;4842120;29;20052;-77
2021/12/27 06:45:33;;;;;;;24.90;15.82;;;-0.20;99.90;;;;;;4839253;29;20492;-77
2021/12/27 06:47:59;;;;;;;24.35;15.55;;;-0.20;99.90;;;;;;4840605;29;20049;-77
2021/12/27 06:50:25;;;;;;;27.40;16.80;;;-0.20;99.90;;;;;;4842117;29;20126;-77
2021/12/27 06:52:50;;;;;;;23.58;16.05;;;-0.10;99.90;;;;;;4841359;29;20116;-77
2021/12/27 06:55:17;;;;;;;24.35;16.13;;;-0.10;99.90;;;;;;4839170;29;20346;-77
2021/12/27 06:57:43;;;;;;;26.08;16.33;;;-0.10;99.90;;;;;;4814211;29;20109;-77
2021/12/27 07:00:12;;;;;;;23.70;15.07;;;-0.10;99.90;;;;;;4838063;29;20045;-77
2021/12/27 07:02:38;;;;;;;24.38;15.68;;;-0.10;99.90;;;;;;4836606;29;20046;-77
2021/12/27 07:05:04;;;;;;;27.17;16.77;;;-0.10;99.90;;;;;;4840139;29;20042;-77
2021/12/27 07:07:30;;;;;;;;;;;-0.10;99.90;;;;;;4825333;29;20065;-77
2021/12/27 07:09:56;;;;;;;29.85;16.88;;;-0.10;99.90;;;;;;4825045;29;19981;-77
2021/12/27 07:12:21;;;;;;;29.40;15.60;;;0.00;99.90;;;;;;4839567;29;20097;-76
2021/12/27 07:14:48;;;;;;;27.02;16.90;;;0.00;99.90;;;;;;4826182;29;20072;-76
2021/12/27 07:17:15;;;;;;;30.23;16.23;;;-0.10;99.90;;;;;;4824598;29;20137;-76
2021/12/27 07:19:41;;;;;;;32.85;17.67;;;-0.10;99.90;;;;;;4834907;29;20042;-76
2021/12/27 07:22:08;;;;;;;25.75;16.10;;;0.00;99.90;;;;;;4820889;29;20337;-76
2021/12/27 07:24:34;;;;;;;31.52;18.10;;;0.00;99.90;;;;;;4824500;29;20073;-76
2021/12/27 07:27:00;;;;;;;30.20;16.90;;;0.00;99.90;;;;;;4824112;29;20069;-77
2021/12/27 07:29:26;;;;;;;30.08;17.20;;;0.00;99.90;;;;;;4814274;29;20124;-78
2021/12/27 07:31:52;;;;;;;29.55;16.90;;;0.00;99.90;;;;;;4828087;29;20141;-77
2021/12/27 07:34:21;;;;;;;31.58;17.83;;;0.00;99.90;;;;;;4809854;29;20124;-79
2021/12/27 07:36:47;;;;;;;30.80;16.55;;;0.00;99.90;;;;;;4832731;29;20030;-77
2021/12/27 07:39:14;;;;;;;30.83;18.10;;;0.00;99.90;;;;;;4805158;29;20565;-77
2021/12/27 07:41:40;;;;;;;27.73;16.80;;;0.00;99.90;;;;;;4813791;29;20575;-77
2021/12/27 07:44:07;;;;;;;26.23;15.55;;;-0.10;99.90;;;;;;4825212;29;20480;-77
2021/12/27 07:46:35;;;;;;;30.52;17.40;;;0.00;99.90;;;;;;4806645;29;20491;-78
2021/12/27 07:49:02;;;;;;;28.05;17.00;;;-0.10;99.90;;;;;;4826552;29;20053;-77
2021/12/27 07:51:28;;;;;;;30.45;17.77;;;0.00;99.90;;;;;;4816421;29;20458;-77
2021/12/27 07:53:54;;;;;;;27.75;16.83;;;0.00;99.90;;;;;;4806963;29;20060;-77
2021/12/27 07:56:19;;;;;;;33.75;18.50;;;0.00;99.90;;;;;;4822125;29;20118;-77
2021/12/27 07:58:45;;;;;;;25.00;13.60;;;0.00;99.90;;;;;;4825956;29;20068;-76
2021/12/27 08:01:11;;;;;;;30.95;17.80;;;0.00;99.90;;;;;;4804647;29;20042;-79
2021/12/27 08:03:37;;;;;;;29.77;17.05;;;0.00;99.90;;;;;;4813963;29;20053;-78
2021/12/27 08:06:03;;;;;;;30.00;18.20;;;0.00;99.90;;;;;;4830969;29;20030;-83
2021/12/27 08:08:29;;;;;;;34.53;18.33;;;0.00;99.90;;;;;;4827546;29;20037;-77
2021/12/27 08:10:54;;;;;;;26.83;17.20;;;0.00;99.90;;;;;;4835449;29;20864;-78
2021/12/27 08:13:21;;;;;;;28.65;17.98;;;0.00;99.90;;;;;;4824643;29;20591;-78
2021/12/27 08:15:46;;;;;;;33.05;18.55;;;0.00;99.90;;;;;;4828479;29;20085;-78
2021/12/27 08:18:12;;;;;;;28.27;17.33;;;0.00;99.90;;;;;;4840791;29;20392;-77
2021/12/27 08:20:38;;;;;;;31.33;17.95;;;0.00;99.90;;;;;;4835834;29;20353;-77
2021/12/27 08:23:04;;;;;;;28.27;16.45;;;0.10;99.90;;;;;;4835573;29;20057;-78
2021/12/27 08:25:30;;;;;;;27.45;17.05;;;0.10;99.90;;;;;;4818080;29;20050;-77
2021/12/27 08:27:56;;;;;;;30.50;17.83;;;0.00;99.90;;;;;;4840344;29;20041;-77
2021/12/27 08:30:22;;;;;;;30.95;18.45;;;0.10;99.90;;;;;;4838666;29;20476;-78
2021/12/27 08:32:47;;;;;;;26.23;16.92;;;0.10;99.90;;;;;;4838739;29;20043;-77
2021/12/27 08:35:15;;;;;;;28.02;16.90;;;0.10;99.90;;;;;;4839545;29;20049;-77
2021/12/27 08:37:42;;;;;;;26.67;16.35;;;0.10;99.90;;;;;;4827650;29;20056;-77
2021/12/27 08:40:08;;;;;;;28.65;17.73;;;0.10;99.90;;;;;;4830928;29;20049;-77
2021/12/27 08:42:34;;;;;;;30.15;17.85;;;0.20;99.90;;;;;;4828495;29;20056;-76
2021/12/27 08:45:00;;;;;;;28.08;16.75;;;0.20;99.90;;;;;;4834582;29;20515;-77
2021/12/27 08:47:26;;;;;;;31.33;18.15;;;0.10;99.90;;;;;;4843711;29;20057;-77
2021/12/27 08:49:52;;;;;;;31.52;17.35;;;0.20;99.90;;;;;;4827239;29;20075;-77
2021/12/27 08:52:18;;;;;;;36.92;18.05;;;0.20;99.90;;;;;;4825055;29;20048;-77
2021/12/27 08:54:43;;;;;;;34.63;17.52;;;0.20;99.90;;;;;;4828407;29;20053;-77
2021/12/27 08:57:09;;;;;;;31.35;17.48;;;0.20;99.90;;;;;;4840934;29;20125;-78
2021/12/27 08:59:36;;;;;;;34.47;19.17;;;0.20;99.90;;;;;;4844299;29;20396;-78
2021/12/27 09:02:03;;;;;;;32.33;16.77;;;0.30;99.90;;;;;;4843424;29;20042;-78
2021/12/27 09:04:29;;;;;;;33.33;17.55;;;0.30;99.90;;;;;;4813918;29;20125;-78
2021/12/27 09:06:55;;;;;;;32.95;17.52;;;0.30;99.90;;;;;;4842270;29;20049;-75
2021/12/27 09:09:21;;;;;;;28.20;14.88;;;0.30;99.90;;;;;;4843239;29;20046;-76
2021/12/27 09:11:47;;;;;;;33.65;17.73;;;0.40;99.90;;;;;;4845229;29;20045;-74
2021/12/27 09:14:14;;;;;;;34.72;18.52;;;0.40;99.90;;;;;;4845768;29;20052;-76
2021/12/27 09:16:39;;;;;;;;;;;0.40;99.90;;;;;;4861078;29;20057;-76
2021/12/27 09:19:05;;;;;;;27.40;15.68;;;0.40;99.90;;;;;;4828337;29;19923;-76
2021/12/27 09:21:31;;;;;;;30.55;16.90;;;0.50;99.90;;;;;;4841510;29;20056;-76
2021/12/27 09:23:56;;;;;;;33.08;17.98;;;0.40;99.90;;;;;;4856834;29;20117;-75
2021/12/27 09:26:22;;;;;;;37.90;19.83;;;0.50;99.90;;;;;;4834287;29;20092;-76
2021/12/27 09:28:48;;;;;;;34.33;16.85;;;0.50;99.90;;;;;;4839086;29;20336;-76
2021/12/27 09:31:14;;;;;;;32.65;16.63;;;0.50;99.90;;;;;;4839793;29;20432;-75
2021/12/27 09:33:41;;;;;;;41.20;19.65;;;0.50;99.90;;;;;;4824949;29;20048;-75
2021/12/27 09:36:06;;;;;;;31.02;17.38;;;0.50;99.90;;;;;;4821438;29;20053;-75
2021/12/27 09:38:32;;;;;;;31.85;16.88;;;0.50;99.90;;;;;;4837546;29;20484;-75
2021/12/27 09:40:58;;;;;;;33.93;17.87;;;0.50;99.90;;;;;;4834354;29;20098;-75
2021/12/27 09:43:26;;;;;;;30.75;17.42;;;0.60;99.90;;;;;;4839631;29;20290;-75
2021/12/27 09:45:52;;;;;;;33.80;18.02;;;0.60;99.90;;;;;;4821274;29;20050;-75
2021/12/27 09:48:17;;;;;;;31.77;16.65;;;0.60;99.90;;;;;;4821541;29;20100;-75
2021/12/27 09:50:47;;;;;;;30.15;15.35;;;0.60;99.90;;;;;;4841205;29;20503;-75
2021/12/27 09:53:14;;;;;;;29.65;17.75;;;0.60;99.90;;;;;;4846062;29;20041;-76
2021/12/27 09:55:39;;;;;;;37.50;18.67;;;0.60;99.90;;;;;;4832055;29;20567;-75
2021/12/27 09:58:06;;;;;;;35.78;18.48;;;0.70;99.90;;;;;;4841742;29;20050;-75
2021/12/27 10:00:33;;;;;;;38.72;19.45;;;0.60;99.90;;;;;;4827594;29;20049;-75
2021/12/27 10:02:59;;;;;;;36.10;17.88;;;0.60;99.90;;;;;;4838894;29;20037;-75
2021/12/27 10:05:27;;;;;;;31.65;17.35;;;0.60;99.90;;;;;;4842614;29;20041;-75
2021/12/27 10:07:54;;;;;;;32.92;17.38;;;0.70;99.90;;;;;;4819862;29;20049;-75
2021/12/27 10:10:20;;;;;;;;;;;0.70;99.90;;;;;;4834281;29;20053;-75
2021/12/27 10:12:46;;;;;;;31.88;18.27;;;0.70;99.90;;;;;;4834103;29;19925;-74
2021/12/27 10:15:17;;;;;;;;;;;0.60;99.90;;;;;;4836506;29;20484;-74
2021/12/27 10:17:44;;;;;;;30.50;16.02;;;0.70;99.90;;;;;;4835029;29;19924;-74
2021/12/27 10:20:24;;;;;;;31.17;16.83;;;0.70;99.90;;;;;;4843691;29;20117;-77
2021/12/27 10:22:53;;;;;;;30.15;17.13;;;0.70;99.90;;;;;;4808087;29;20061;-78
2021/12/27 10:25:25;;;;;;;34.97;17.85;;;0.80;99.90;;;;;;4825977;29;20029;-78
2021/12/27 10:27:53;;;;;;;34.03;18.30;;;0.80;99.90;;;;;;4820580;29;20057;-78
2021/12/27 10:30:25;;;;;;;29.35;16.85;;;0.80;99.90;;;;;;4833910;29;20041;-79
2021/12/27 10:33:03;;;;;;;35.53;17.92;;;0.80;99.90;;;;;;4836376;29;20420;-79
2021/12/27 10:35:38;;;;;;;31.20;16.67;;;0.90;99.90;;;;;;4843732;29;20131;-79
2021/12/27 10:38:16;;;;;;;33.28;16.27;;;0.90;99.90;;;;;;4843870;29;20049;-80
2021/12/27 10:40:53;;;;;;;35.83;18.20;;;0.90;99.90;;;;;;4843527;29;20484;-79
2021/12/27 10:43:38;;;;;;;37.17;18.85;;;0.90;99.90;;;;;;4842042;29;20038;-79
2021/12/27 10:46:10;;;;;;;32.55;16.80;;;0.90;99.90;;;;;;4841537;29;20487;-79
2021/12/27 10:48:42;;;;;;;35.40;17.23;;;1.00;99.90;;;;;;4827866;29;20053;-79
2021/12/27 10:51:09;;;;;;;38.00;18.48;;;0.90;99.90;;;;;;4842577;29;20070;-80
2021/12/27 10:53:42;;;;;;;37.00;16.90;;;0.90;99.90;;;;;;4841318;29;20109;-80
2021/12/27 10:56:09;;;;;;;39.28;18.38;;;1.00;99.90;;;;;;4841093;29;20113;-79
2021/12/27 10:58:38;;;;;;;37.80;18.42;;;1.10;99.90;;;;;;4837157;29;20456;-80
2021/12/27 11:01:11;;;;;;;43.30;19.50;;;1.00;99.90;;;;;;4840352;29;20049;-80
2021/12/27 11:03:43;;;;;;;40.72;17.55;;;1.10;99.90;;;;;;4840660;29;20124;-75
2021/12/27 11:06:11;;;;;;;45.35;20.58;;;1.10;99.90;;;;;;4838472;29;20077;-75
2021/12/27 11:08:45;;;;;;;48.53;20.75;;;1.10;99.90;;;;;;4812627;29;20518;-76
2021/12/27 11:11:15;;;;;;;40.97;18.15;;;1.10;99.90;;;;;;4837475;29;20046;-76
2021/12/27 11:13:41;;;;;;;42.47;19.15;;;1.10;99.90;;;;;;4823393;29;20053;-80
2021/12/27 11:16:07;;;;;;;;;;;1.20;99.90;;;;;;4859753;29;20065;-80
2021/12/27 11:18:34;;;;;;;43.05;19.10;;;1.30;99.90;;;;;;4840695;29;19924;-80
2021/12/27 11:21:02;;;;;;;;;;;1.30;99.90;;;;;;4838774;29;20125;-80
2021/12/27 11:23:29;;;;;;;37.83;18.05;;;1.40;99.90;;;;;;4826904;29;19971;-81
2021/12/27 11:26:02;;;;;;;45.92;18.40;;;1.30;99.90;;;;;;4840218;29;20121;-79
2021/12/27 11:28:38;;;;;;;45.03;20.38;;;1.40;99.90;;;;;;4834411;29;20492;-80
2021/12/27 11:31:24;;;;;;;46.28;20.88;;;1.50;99.90;;;;;;4838794;29;20077;-76
2021/12/27 11:33:57;;;;;;;52.90;21.23;;;1.40;99.90;;;;;;4836685;29;20082;-77
2021/12/27 11:36:28;;;;;;;43.80;19.20;;;1.40;99.90;;;;;;4856732;29;20106;-75
2021/12/27 11:38:54;;;;;;;48.55;20.50;;;1.40;99.90;;;;;;4826643;29;20041;-76
2021/12/27 11:41:36;;;;;;;47.88;21.00;;;1.50;99.90;;;;;;4836219;29;20092;-76
2021/12/27 11:44:07;;;;;;;46.45;21.05;;;1.40;99.90;;;;;;4839209;29;20082;-77
2021/12/27 11:46:48;;;;;;;48.50;20.15;;;1.40;99.90;;;;;;4854149;29;20459;-79
2021/12/27 11:49:16;;;;;;;45.75;20.23;;;1.40;99.90;;;;;;4840665;29;20124;-80
2021/12/27 11:51:43;;;;;;;44.38;19.52;;;1.50;99.90;;;;;;4842794;29;20052;-81
2021/12/27 11:54:25;;;;;;;;;;;1.30;99.90;;;;;;4839975;29;20045;-77
2021/12/27 11:56:51;;;;;;;48.97;22.13;;;1.30;99.90;;;;;;4836612;29;19981;-77
2021/12/27 11:59:25;;;;;;;50.85;20.77;;;1.40;99.90;;;;;;4825772;29;20045;-80
2021/12/27 12:01:52;;;;;;;46.97;20.63;;;1.40;99.90;;;;;;4841650;29;20105;-76
2021/12/27 12:04:46;;;;;;;44.05;18.42;;;1.40;99.90;;;;;;4827453;29;20038;-77
2021/12/27 12:07:34;;;;;;;45.83;18.45;;;1.40;99.90;;;;;;4843393;29;20045;-76
2021/12/27 12:10:12;;;;;;;36.90;17.70;;;1.40;99.90;;;;;;4846925;29;20053;-79
2021/12/27 12:12:38;;;;;;;35.67;17.02;;;1.40;99.90;;;;;;4863119;29;20041;-76
2021/12/27 12:15:05;;;;;;;41.40;18.88;;;1.50;99.90;;;;;;4844136;29;20056;-76
2021/12/27 12:17:40;;;;;;;47.70;19.63;;;1.60;99.90;;;;;;4826540;29;20110;-77
2021/12/27 12:20:24;;;;;;;42.08;19.27;;;1.60;99.90;;;;;;4842858;29;20054;-80
2021/12/27 12:22:59;;;;;;;42.00;19.65;;;1.60;99.90;;;;;;4846711;29;20078;-81
2021/12/27 12:25:25;;;;;;;35.88;16.95;;;1.70;99.90;;;;;;4835081;29;20049;-78
2021/12/27 12:28:11;;;;;;;45.08;20.35;;;1.70;99.90;;;;;;4816171;29;20046;-80
2021/12/27 12:30:47;;;;;;;37.72;18.77;;;1.60;99.90;;;;;;4842163;29;20100;-77
2021/12/27 12:33:15;;;;;;;45.75;20.30;;;1.70;99.90;;;;;;4831646;29;20516;-81
2021/12/27 12:35:49;;;;;;;46.22;20.65;;;1.70;99.90;;;;;;4846006;29;20049;-78
2021/12/27 12:38:24;;;;;;;48.28;19.92;;;1.70;99.90;;;;;;4844296;29;20049;-78